Wetterdaten: Freitag, 13.07.2012
Datum Zeit Temperatur Luftfeuchte Regen Wind Richtung Richtung Taupunkt Windchill Windben
13.07.2012 00:00 12,7 C 75 % 0,0 l/m 0,2 km/h (0 Bft) N-NO 22 8,4 C 12,6 C 0,0 km/h (0 Bft)
13.07.2012 00:05 12,7 C 76 % 0,0 l/m 0,0 km/h (0 Bft) NO 45 8,6 C 12,6 C 0,0 km/h (0 Bft)
13.07.2012 00:10 12,6 C 76 % 0,0 l/m 0,0 km/h (0 Bft) NO 45 8,5 C 12,6 C 0,0 km/h (0 Bft)
13.07.2012 00:15 12,6 C 75 % 0,0 l/m 0,0 km/h (0 Bft) NO 45 8,3 C 12,5 C 0,0 km/h (0 Bft)
13.07.2012 00:20 12,5 C 76 % 0,0 l/m 0,0 km/h (0 Bft) O-SO 112 8,4 C 12,4 C 0,0 km/h (0 Bft)
13.07.2012 00:25 12,4 C 77 % 0,0 l/m 0,0 km/h (0 Bft) N 360 8,5 C 12,3 C 0,0 km/h (0 Bft)
13.07.2012 00:30 12,4 C 77 % 0,0 l/m 0,2 km/h (0 Bft) NO 45 8,5 C 12,3 C 0,0 km/h (0 Bft)
13.07.2012 00:35 12,4 C 77 % 0,0 l/m 0,2 km/h (0 Bft) O-SO 112 8,5 C 12,3 C 0,0 km/h (0 Bft)
13.07.2012 00:40 12,4 C 77 % 0,0 l/m 0,0 km/h (0 Bft) N-NO 22 8,5 C 12,2 C 0,0 km/h (0 Bft)
13.07.2012 00:45 12,4 C 78 % 0,0 l/m 0,2 km/h (0 Bft) N-NW 337 8,7 C 12,2 C 0,0 km/h (0 Bft)
13.07.2012 00:50 12,3 C 78 % 0,0 l/m 0,3 km/h (0 Bft) S-SW 202 8,6 C 12,2 C 0,0 km/h (0 Bft)
13.07.2012 00:55 12,3 C 78 % 0,0 l/m 0,2 km/h (0 Bft) O 90 8,6 C 12,2 C 0,0 km/h (0 Bft)
13.07.2012 01:00 12,3 C 78 % 0,0 l/m 0,2 km/h (0 Bft) N 360 8,6 C 12,2 C 0,0 km/h (0 Bft)
13.07.2012 01:05 12,3 C 78 % 0,0 l/m 0,2 km/h (0 Bft) S 180 8,6 C 12,2 C 0,0 km/h (0 Bft)
13.07.2012 01:10 12,3 C 78 % 0,0 l/m 0,0 km/h (0 Bft) N-NO 22 8,6 C 12,1 C 0,0 km/h (0 Bft)
13.07.2012 01:15 12,3 C 78 % 0,0 l/m 0,0 km/h (0 Bft) N-NO 22 8,6 C 12,1 C 0,0 km/h (0 Bft)
13.07.2012 01:20 12,2 C 79 % 0,0 l/m 0,0 km/h (0 Bft) N-NO 22 8,7 C 12,0 C 0,0 km/h (0 Bft)
13.07.2012 01:25 12,2 C 79 % 0,0 l/m 0,0 km/h (0 Bft) N-NO 22 8,7 C 12,0 C 0,0 km/h (0 Bft)
13.07.2012 01:30 12,2 C 79 % 0,0 l/m 0,0 km/h (0 Bft) N-NW 337 8,7 C 11,9 C 0,0 km/h (0 Bft)
13.07.2012 01:35 12,1 C 79 % 0,0 l/m 0,2 km/h (0 Bft) N 360 8,6 C 11,9 C 0,0 km/h (0 Bft)
13.07.2012 01:40 12,1 C 79 % 0,0 l/m 0,2 km/h (0 Bft) N-NO 22 8,6 C 11,9 C 0,0 km/h (0 Bft)
13.07.2012 01:45 12,1 C 79 % 0,0 l/m 0,0 km/h (0 Bft) SO 135 8,6 C 11,9 C 0,0 km/h (0 Bft)
13.07.2012 01:50 12,2 C 79 % 0,0 l/m 0,0 km/h (0 Bft) SO 135 8,7 C 11,9 C 0,0 km/h (0 Bft)
13.07.2012 01:55 12,1 C 79 % 0,0 l/m 0,0 km/h (0 Bft) N 360 8,6 C 11,9 C 0,0 km/h (0 Bft)
13.07.2012 02:00 12,1 C 79 % 0,0 l/m 0,0 km/h (0 Bft) N 360 8,6 C 11,8 C 0,0 km/h (0 Bft)
13.07.2012 02:05 12,0 C 79 % 0,0 l/m 0,0 km/h (0 Bft) W-NW 292 8,5 C 11,8 C 0,0 km/h (0 Bft)
13.07.2012 02:10 11,9 C 80 % 0,0 l/m 0,0 km/h (0 Bft) NO 45 8,6 C 11,6 C 0,0 km/h (0 Bft)
13.07.2012 02:15 11,8 C 80 % 0,0 l/m 0,0 km/h (0 Bft) S-SO 157 8,5 C 11,7 C 0,0 km/h (0 Bft)
13.07.2012 02:20 11,9 C 80 % 0,0 l/m 0,0 km/h (0 Bft) S-SO 157 8,6 C 11,7 C 0,0 km/h (0 Bft)
13.07.2012 02:25 11,9 C 81 % 0,0 l/m 0,0 km/h (0 Bft) S-SO 157 8,7 C 11,6 C 0,0 km/h (0 Bft)
13.07.2012 02:30 11,8 C 82 % 0,0 l/m 0,0 km/h (0 Bft) S-SO 157 8,8 C 11,6 C 0,0 km/h (0 Bft)
13.07.2012 02:35 11,7 C 82 % 0,0 l/m 0,0 km/h (0 Bft) O-SO 112 8,7 C 11,5 C 0,0 km/h (0 Bft)
13.07.2012 02:40 11,5 C 82 % 0,0 l/m 0,0 km/h (0 Bft) N-NW 337 8,5 C 11,3 C 0,0 km/h (0 Bft)
13.07.2012 02:45 11,6 C 82 % 0,0 l/m 0,0 km/h (0 Bft) NO 45 8,6 C 11,2 C 0,0 km/h (0 Bft)
13.07.2012 02:50 11,6 C 83 % 0,0 l/m 0,0 km/h (0 Bft) N-NW 337 8,8 C 11,3 C 0,0 km/h (0 Bft)
13.07.2012 02:55 11,6 C 83 % 0,0 l/m 0,0 km/h (0 Bft) NO 45 8,8 C 11,3 C 0,0 km/h (0 Bft)
13.07.2012 03:00 11,6 C 83 % 0,0 l/m 0,0 km/h (0 Bft) N-NW 337 8,8 C 11,3 C 0,0 km/h (0 Bft)
13.07.2012 03:05 11,7 C 84 % 0,0 l/m 0,0 km/h (0 Bft) N-NW 337 9,1 C 11,3 C 0,0 km/h (0 Bft)
13.07.2012 03:10 11,7 C 83 % 0,0 l/m 0,0 km/h (0 Bft) NO 45 8,9 C 11,4 C 0,0 km/h (0 Bft)
13.07.2012 03:15 11,7 C 83 % 0,0 l/m 0,0 km/h (0 Bft) NO 45 8,9 C 11,4 C 0,0 km/h (0 Bft)
13.07.2012 03:20 11,7 C 83 % 0,0 l/m 0,0 km/h (0 Bft) S 180 8,9 C 11,4 C 0,0 km/h (0 Bft)
13.07.2012 03:25 11,6 C 84 % 0,0 l/m 0,0 km/h (0 Bft) W 270 9,0 C 11,3 C 0,0 km/h (0 Bft)
13.07.2012 03:30 11,5 C 84 % 0,0 l/m 0,0 km/h (0 Bft) W 270 8,9 C 11,1 C 0,0 km/h (0 Bft)
13.07.2012 03:35 11,5 C 85 % 0,0 l/m 0,0 km/h (0 Bft) NO 45 9,1 C 11,0 C 0,0 km/h (0 Bft)
13.07.2012 03:40 11,4 C 85 % 0,0 l/m 0,0 km/h (0 Bft) N-NO 22 9,0 C 10,9 C 0,0 km/h (0 Bft)
13.07.2012 03:45 11,3 C 86 % 0,0 l/m 0,0 km/h (0 Bft) N 360 9,0 C 10,9 C 0,0 km/h (0 Bft)
13.07.2012 03:50 11,2 C 87 % 0,0 l/m 0,0 km/h (0 Bft) N 360 9,1 C 10,8 C 0,0 km/h (0 Bft)
13.07.2012 03:55 11,1 C 88 % 0,0 l/m 0,2 km/h (0 Bft) N 360 9,2 C 10,8 C 0,0 km/h (0 Bft)
13.07.2012 04:00 11,1 C 89 % 0,0 l/m 0,2 km/h (0 Bft) N-NW 337 9,4 C 10,7 C 0,0 km/h (0 Bft)
13.07.2012 04:05 11,0 C 89 % 0,0 l/m 0,0 km/h (0 Bft) N 360 9,3 C 10,7 C 0,0 km/h (0 Bft)
13.07.2012 04:10 11,0 C 91 % 0,0 l/m 0,0 km/h (0 Bft) W-NW 292 9,6 C 10,6 C 0,0 km/h (0 Bft)
13.07.2012 04:15 11,0 C 91 % 0,0 l/m 0,0 km/h (0 Bft) N-NO 22 9,6 C 10,6 C 0,0 km/h (0 Bft)
13.07.2012 04:20 11,0 C 92 % 0,0 l/m 0,0 km/h (0 Bft) S 180 9,8 C 10,6 C 0,0 km/h (0 Bft)
13.07.2012 04:25 11,0 C 92 % 0,0 l/m 0,0 km/h (0 Bft) N-NO 22 9,8 C 10,6 C 0,0 km/h (0 Bft)
13.07.2012 04:30 11,0 C 92 % 0,0 l/m 0,0 km/h (0 Bft) N-NO 22 9,8 C 10,6 C 0,0 km/h (0 Bft)
13.07.2012 04:35 10,9 C 93 % 0,0 l/m 0,0 km/h (0 Bft) N-NO 22 9,8 C 10,6 C 0,0 km/h (0 Bft)
13.07.2012 04:40 10,9 C 93 % 0,0 l/m 0,0 km/h (0 Bft) N-NW 337 9,8 C 10,6 C 0,0 km/h (0 Bft)
13.07.2012 04:45 10,9 C 93 % 0,0 l/m 0,0 km/h (0 Bft) N-NW 337 9,8 C 10,6 C 0,0 km/h (0 Bft)
13.07.2012 04:50 10,8 C 93 % 0,0 l/m 0,0 km/h (0 Bft) W-NW 292 9,7 C 10,6 C 0,0 km/h (0 Bft)
13.07.2012 04:55 10,8 C 93 % 0,0 l/m 0,2 km/h (0 Bft) NO 45 9,7 C 10,6 C 0,0 km/h (0 Bft)
13.07.2012 05:00 10,8 C 93 % 0,0 l/m 0,2 km/h (0 Bft) N-NO 22 9,7 C 10,5 C 0,0 km/h (0 Bft)
13.07.2012 05:05 10,8 C 93 % 0,0 l/m 0,2 km/h (0 Bft) SO 135 9,7 C 10,5 C 0,0 km/h (0 Bft)
13.07.2012 05:10 10,7 C 93 % 0,0 l/m 0,0 km/h (0 Bft) N-NW 337 9,6 C 10,4 C 0,0 km/h (0 Bft)
13.07.2012 05:15 10,6 C 94 % 0,0 l/m 0,0 km/h (0 Bft) N 360 9,7 C 10,4 C 0,0 km/h (0 Bft)
13.07.2012 05:20 10,6 C 94 % 0,0 l/m 0,0 km/h (0 Bft) N 360 9,7 C 10,3 C 0,0 km/h (0 Bft)
13.07.2012 05:25 10,6 C 94 % 0,0 l/m 0,0 km/h (0 Bft) N 360 9,7 C 10,4 C 0,0 km/h (0 Bft)
13.07.2012 05:30 10,7 C 94 % 0,0 l/m 0,2 km/h (0 Bft) N-NO 22 9,8 C 10,4 C 0,0 km/h (0 Bft)
13.07.2012 05:35 10,7 C 94 % 0,0 l/m 0,2 km/h (0 Bft) N 360 9,8 C 10,4 C 0,0 km/h (0 Bft)
13.07.2012 05:40 10,6 C 94 % 0,0 l/m 0,0 km/h (0 Bft) N 360 9,7 C 10,4 C 0,0 km/h (0 Bft)
13.07.2012 05:45 10,6 C 94 % 0,0 l/m 0,0 km/h (0 Bft) SO 135 9,7 C 10,4 C 0,0 km/h (0 Bft)
13.07.2012 05:50 10,7 C 94 % 0,0 l/m 0,0 km/h (0 Bft) SO 135 9,8 C 10,4 C 0,0 km/h (0 Bft)
13.07.2012 05:55 10,7 C 94 % 0,0 l/m 0,5 km/h (0 Bft) SO 135 9,8 C 10,4 C 3,5 km/h (1 Bft)
13.07.2012 06:00 10,7 C 94 % 0,0 l/m 0,8 km/h (0 Bft) O-SO 112 9,8 C 10,5 C 0,0 km/h (0 Bft)
13.07.2012 06:05 10,7 C 94 % 0,0 l/m 0,8 km/h (0 Bft) O-SO 112 9,8 C 10,5 C 0,0 km/h (0 Bft)
13.07.2012 06:10 10,8 C 94 % 0,0 l/m 1,4 km/h (1 Bft) O-SO 112 9,9 C 10,5 C 4,8 km/h (1 Bft)
13.07.2012 06:15 10,7 C 94 % 0,0 l/m 1,8 km/h (1 Bft) N 360 9,8 C 10,5 C 0,0 km/h (0 Bft)
13.07.2012 06:20 10,7 C 94 % 0,7 l/m 1,1 km/h (1 Bft) N-NO 22 9,8 C 10,5 C 0,0 km/h (0 Bft)
13.07.2012 06:25 10,7 C 94 % 0,0 l/m 0,5 km/h (0 Bft) SW 225 9,8 C 10,5 C 0,0 km/h (0 Bft)
13.07.2012 06:30 10,8 C 94 % 0,7 l/m 0,8 km/h (0 Bft) O-SO 112 9,9 C 10,6 C 2,7 km/h (1 Bft)
13.07.2012 06:35 10,7 C 94 % 0,0 l/m 1,0 km/h (0 Bft) N 360 9,8 C 10,6 C 0,0 km/h (0 Bft)
13.07.2012 06:40 10,7 C 94 % 0,0 l/m 1,0 km/h (0 Bft) N-NO 22 9,8 C 10,6 C 1,9 km/h (1 Bft)
13.07.2012 06:45 10,7 C 94 % 0,0 l/m 0,5 km/h (0 Bft) SO 135 9,8 C 10,6 C 0,0 km/h (0 Bft)
13.07.2012 06:50 10,8 C 95 % 0,0 l/m 0,0 km/h (0 Bft) N-NO 22 10,0 C 10,6 C 0,0 km/h (0 Bft)
13.07.2012 06:55 10,9 C 95 % 0,0 l/m 0,0 km/h (0 Bft) N-NO 22 10,1 C 10,6 C 0,0 km/h (0 Bft)
13.07.2012 07:00 10,9 C 95 % 0,0 l/m 0,0 km/h (0 Bft) W 270 10,1 C 10,7 C 0,0 km/h (0 Bft)
13.07.2012 07:05 11,0 C 94 % 0,0 l/m 0,0 km/h (0 Bft) O-SO 112 10,1 C 10,8 C 0,0 km/h (0 Bft)
13.07.2012 07:10 11,0 C 94 % 0,0 l/m 0,0 km/h (0 Bft) NO 45 10,1 C 10,8 C 0,0 km/h (0 Bft)
13.07.2012 07:15 11,0 C 94 % 0,0 l/m 0,3 km/h (0 Bft) O-SO 112 10,1 C 10,8 C 2,3 km/h (1 Bft)
13.07.2012 07:20 11,1 C 94 % 0,0 l/m 1,0 km/h (0 Bft) N-NO 22 10,2 C 10,9 C 1,6 km/h (1 Bft)
13.07.2012 07:25 11,1 C 94 % 0,0 l/m 0,8 km/h (0 Bft) N-NW 337 10,2 C 10,9 C 0,0 km/h (0 Bft)
13.07.2012 07:30 11,0 C 94 % 0,0 l/m 0,0 km/h (0 Bft) N-NO 22 10,1 C 10,9 C 0,0 km/h (0 Bft)
13.07.2012 07:35 11,0 C 94 % 0,0 l/m 0,2 km/h (0 Bft) N-NO 22 10,1 C 10,9 C 0,0 km/h (0 Bft)
13.07.2012 07:40 11,1 C 94 % 0,0 l/m 0,5 km/h (0 Bft) O-SO 112 10,2 C 10,9 C 2,1 km/h (1 Bft)
13.07.2012 07:45 11,1 C 94 % 0,0 l/m 0,3 km/h (0 Bft) N-NO 22 10,2 C 10,9 C 0,0 km/h (0 Bft)
13.07.2012 07:50 11,0 C 95 % 0,0 l/m 0,3 km/h (0 Bft) O 90 10,2 C 10,9 C 0,0 km/h (0 Bft)
13.07.2012 07:55 11,1 C 95 % 0,0 l/m 0,3 km/h (0 Bft) O-SO 112 10,3 C 10,9 C 0,0 km/h (0 Bft)
13.07.2012 08:00 11,1 C 95 % 0,0 l/m 0,5 km/h (0 Bft) N-NW 337 10,3 C 10,9 C 0,0 km/h (0 Bft)
13.07.2012 08:05 11,1 C 95 % 0,0 l/m 0,2 km/h (0 Bft) N 360 10,3 C 10,9 C 0,0 km/h (0 Bft)
13.07.2012 08:10 11,1 C 95 % 0,0 l/m 0,6 km/h (0 Bft) O-SO 112 10,3 C 10,9 C 0,0 km/h (0 Bft)
13.07.2012 08:15 11,2 C 95 % 0,0 l/m 1,0 km/h (0 Bft) O-SO 112 10,4 C 10,9 C 1,8 km/h (1 Bft)
13.07.2012 08:20 11,2 C 95 % 0,7 l/m 1,3 km/h (1 Bft) N 360 10,4 C 10,9 C 5,3 km/h (1 Bft)
13.07.2012 08:25 11,2 C 95 % 0,0 l/m 1,9 km/h (1 Bft) O 90 10,4 C 10,9 C 2,4 km/h (1 Bft)
13.07.2012 08:30 11,3 C 95 % 0,0 l/m 2,7 km/h (1 Bft) O 90 10,5 C 10,9 C 7,1 km/h (2 Bft)
13.07.2012 08:35 11,2 C 95 % 0,0 l/m 2,9 km/h (1 Bft) O-NO 67 10,4 C 10,9 C 5,5 km/h (1 Bft)
13.07.2012 08:40 11,2 C 95 % 0,0 l/m 1,9 km/h (1 Bft) NW 315 10,4 C 11,0 C 0,0 km/h (0 Bft)
13.07.2012 08:45 11,4 C 95 % 0,0 l/m 1,1 km/h (1 Bft) NO 45 10,6 C 11,1 C 0,0 km/h (0 Bft)
13.07.2012 08:50 11,5 C 95 % 0,0 l/m 0,2 km/h (0 Bft) S 180 10,7 C 11,2 C 0,0 km/h (0 Bft)
13.07.2012 08:55 11,5 C 95 % 0,0 l/m 0,2 km/h (0 Bft) SW 225 10,7 C 11,2 C 0,0 km/h (0 Bft)
13.07.2012 09:00 11,8 C 95 % 0,0 l/m 0,3 km/h (0 Bft) O-SO 112 11,0 C 11,4 C 0,0 km/h (0 Bft)
13.07.2012 09:05 12,0 C 95 % 0,0 l/m 0,5 km/h (0 Bft) SO 135 11,2 C 11,5 C 1,8 km/h (1 Bft)
13.07.2012 09:10 12,0 C 94 % 0,0 l/m 0,6 km/h (0 Bft) N-NO 22 11,1 C 11,7 C 0,0 km/h (0 Bft)
13.07.2012 09:15 11,9 C 95 % 0,0 l/m 1,0 km/h (0 Bft) N-NW 337 11,1 C 11,8 C 0,0 km/h (0 Bft)
13.07.2012 09:20 12,0 C 94 % 0,0 l/m 1,0 km/h (0 Bft) SO 135 11,1 C 11,8 C 1,6 km/h (1 Bft)
13.07.2012 09:25 11,9 C 95 % 0,0 l/m 0,8 km/h (0 Bft) S 180 11,1 C 11,7 C 0,0 km/h (0 Bft)
13.07.2012 09:30 11,7 C 94 % 0,0 l/m 0,6 km/h (0 Bft) SO 135 10,8 C 11,6 C 2,3 km/h (1 Bft)
13.07.2012 09:35 11,7 C 94 % 0,0 l/m 0,0 km/h (0 Bft) NO 45 10,8 C 11,7 C 0,0 km/h (0 Bft)
13.07.2012 09:40 11,8 C 95 % 0,0 l/m 0,0 km/h (0 Bft) N-NO 22 11,0 C 11,7 C 0,0 km/h (0 Bft)
13.07.2012 09:45 11,9 C 94 % 0,0 l/m 0,2 km/h (0 Bft) W-NW 292 11,0 C 11,8 C 0,0 km/h (0 Bft)
13.07.2012 09:50 12,3 C 94 % 0,0 l/m 0,8 km/h (0 Bft) O-SO 112 11,4 C 12,0 C 0,0 km/h (0 Bft)
13.07.2012 09:55 12,5 C 94 % 0,0 l/m 1,0 km/h (0 Bft) N 360 11,6 C 12,1 C 0,0 km/h (0 Bft)
13.07.2012 10:00 12,7 C 94 % 0,0 l/m 0,5 km/h (0 Bft) SO 135 11,8 C 12,4 C 2,7 km/h (1 Bft)
13.07.2012 10:05 12,8 C 94 % 0,0 l/m 0,5 km/h (0 Bft) NW 315 11,9 C 12,5 C 0,0 km/h (0 Bft)
13.07.2012 10:10 13,0 C 93 % 0,0 l/m 0,8 km/h (0 Bft) W-SW 247 11,9 C 13,0 C 0,0 km/h (0 Bft)
13.07.2012 10:15 13,3 C 93 % 0,0 l/m 0,3 km/h (0 Bft) W 270 12,2 C 13,3 C 0,0 km/h (0 Bft)
13.07.2012 10:20 13,2 C 92 % 0,0 l/m 0,2 km/h (0 Bft) O 90 11,9 C 13,6 C 0,0 km/h (0 Bft)
13.07.2012 10:25 13,2 C 92 % 0,0 l/m 0,3 km/h (0 Bft) O 90 11,9 C 13,6 C 0,0 km/h (0 Bft)
13.07.2012 10:30 13,2 C 92 % 0,0 l/m 0,6 km/h (0 Bft) O-SO 112 11,9 C 13,5 C 1,6 km/h (1 Bft)
13.07.2012 10:35 13,3 C 92 % 0,0 l/m 0,8 km/h (0 Bft) SO 135 12,0 C 13,5 C 2,6 km/h (1 Bft)
13.07.2012 10:40 13,6 C 92 % 0,0 l/m 1,3 km/h (1 Bft) S 180 12,3 C 13,6 C 1,9 km/h (1 Bft)
13.07.2012 10:45 14,2 C 91 % 0,0 l/m 1,6 km/h (1 Bft) SO 135 12,8 C 14,0 C 0,0 km/h (0 Bft)
13.07.2012 10:50 14,2 C 90 % 0,0 l/m 1,6 km/h (1 Bft) S 180 12,6 C 14,7 C 2,4 km/h (1 Bft)
13.07.2012 10:55 14,2 C 89 % 0,0 l/m 1,3 km/h (1 Bft) O 90 12,4 C 14,9 C 0,0 km/h (0 Bft)
13.07.2012 11:00 14,4 C 88 % 0,0 l/m 1,1 km/h (1 Bft) O-SO 112 12,4 C 15,2 C 0,0 km/h (0 Bft)
13.07.2012 11:05 14,6 C 87 % 0,0 l/m 0,5 km/h (0 Bft) N 360 12,5 C 15,9 C 1,8 km/h (1 Bft)
13.07.2012 11:10 15,1 C 86 % 0,0 l/m 0,3 km/h (0 Bft) W-NW 292 12,8 C 16,7 C 1,6 km/h (1 Bft)
13.07.2012 11:15 15,2 C 86 % 0,0 l/m 0,5 km/h (0 Bft) W-NW 292 12,9 C 17,0 C 1,6 km/h (1 Bft)
13.07.2012 11:20 14,6 C 87 % 0,0 l/m 0,3 km/h (0 Bft) SO 135 12,5 C 16,8 C 0,0 km/h (0 Bft)
13.07.2012 11:25 14,6 C 86 % 0,0 l/m 0,3 km/h (0 Bft) N-NW 337 12,3 C 16,7 C 2,6 km/h (1 Bft)
13.07.2012 11:30 14,2 C 87 % 0,0 l/m 0,2 km/h (0 Bft) NO 45 12,1 C 16,3 C 0,0 km/h (0 Bft)
13.07.2012 11:35 14,3 C 88 % 0,0 l/m 0,2 km/h (0 Bft) SO 135 12,3 C 16,2 C 0,0 km/h (0 Bft)
13.07.2012 11:40 14,8 C 88 % 0,0 l/m 0,3 km/h (0 Bft) S-SO 157 12,8 C 16,2 C 0,0 km/h (0 Bft)
13.07.2012 11:45 14,9 C 88 % 0,0 l/m 0,5 km/h (0 Bft) S-SO 157 12,9 C 16,3 C 0,0 km/h (0 Bft)
13.07.2012 11:50 14,6 C 88 % 0,0 l/m 1,9 km/h (1 Bft) S-SO 157 12,6 C 15,9 C 2,7 km/h (1 Bft)
13.07.2012 11:55 14,3 C 88 % 0,0 l/m 1,8 km/h (1 Bft) W-SW 247 12,3 C 15,2 C 0,0 km/h (0 Bft)
13.07.2012 12:00 14,4 C 89 % 0,7 l/m 0,3 km/h (0 Bft) O-SO 112 12,6 C 14,6 C 0,0 km/h (0 Bft)
13.07.2012 12:05 14,7 C 89 % 0,0 l/m 0,0 km/h (0 Bft) S 180 12,9 C 14,7 C 0,0 km/h (0 Bft)
13.07.2012 12:10 15,4 C 89 % 0,0 l/m 0,2 km/h (0 Bft) S-SO 157 13,6 C 15,6 C 0,0 km/h (0 Bft)
13.07.2012 12:15 16,0 C 88 % 0,0 l/m 0,2 km/h (0 Bft) NO 45 14,0 C 16,5 C 0,0 km/h (0 Bft)
13.07.2012 12:20 16,2 C 83 % 0,0 l/m 0,5 km/h (0 Bft) N-NO 22 13,3 C 17,7 C 0,0 km/h (0 Bft)
13.07.2012 12:25 16,4 C 86 % 0,0 l/m 0,5 km/h (0 Bft) SO 135 14,1 C 18,1 C 1,6 km/h (1 Bft)
13.07.2012 12:30 16,4 C 83 % 0,0 l/m 1,1 km/h (1 Bft) N-NW 337 13,5 C 18,4 C 2,1 km/h (1 Bft)
13.07.2012 12:35 16,6 C 84 % 0,0 l/m 1,6 km/h (1 Bft) O-SO 112 13,9 C 18,7 C 3,7 km/h (1 Bft)
13.07.2012 12:40 16,6 C 82 % 0,0 l/m 2,3 km/h (1 Bft) O-SO 112 13,5 C 18,7 C 11,9 km/h (2 Bft)
13.07.2012 12:45 16,4 C 79 % 0,0 l/m 4,5 km/h (1 Bft) NO 45 12,7 C 18,4 C 8,9 km/h (2 Bft)
13.07.2012 12:50 16,2 C 80 % 0,0 l/m 5,6 km/h (1 Bft) O 90 12,7 C 18,1 C 13,5 km/h (3 Bft)
13.07.2012 12:55 16,1 C 80 % 0,0 l/m 4,5 km/h (1 Bft) O-SO 112 12,6 C 18,0 C 10,6 km/h (2 Bft)
13.07.2012 13:00 16,1 C 76 % 0,0 l/m 5,8 km/h (2 Bft) N 360 11,9 C 17,9 C 19,8 km/h (3 Bft)
13.07.2012 13:05 16,3 C 80 % 0,0 l/m 6,4 km/h (2 Bft) N-NO 22 12,8 C 17,9 C 5,8 km/h (2 Bft)
13.07.2012 13:10 16,6 C 80 % 0,0 l/m 5,5 km/h (1 Bft) S-SO 157 13,1 C 18,0 C 8,9 km/h (2 Bft)
13.07.2012 13:15 16,5 C 77 % 0,0 l/m 5,5 km/h (1 Bft) SO 135 12,5 C 18,1 C 4,7 km/h (1 Bft)
13.07.2012 13:20 16,6 C 76 % 0,0 l/m 4,7 km/h (1 Bft) O-NO 67 12,3 C 18,2 C 5,6 km/h (1 Bft)
13.07.2012 13:25 16,7 C 77 % 0,0 l/m 5,5 km/h (1 Bft) O-SO 112 12,6 C 18,2 C 9,2 km/h (2 Bft)
13.07.2012 13:30 16,8 C 77 % 0,0 l/m 5,6 km/h (1 Bft) O-SO 112 12,7 C 18,2 C 2,1 km/h (1 Bft)
13.07.2012 13:35 16,8 C 74 % 0,0 l/m 5,8 km/h (2 Bft) O-SO 112 12,1 C 18,2 C 9,7 km/h (2 Bft)
13.07.2012 13:40 15,7 C 78 % 0,0 l/m 4,7 km/h (1 Bft) O 90 11,9 C 17,2 C 0,0 km/h (0 Bft)
13.07.2012 13:45 15,7 C 81 % 0,0 l/m 4,3 km/h (1 Bft) N 360 12,4 C 16,3 C 3,2 km/h (1 Bft)
13.07.2012 13:50 15,9 C 79 % 0,0 l/m 3,2 km/h (1 Bft) S-SO 157 12,3 C 16,2 C 1,6 km/h (1 Bft)
13.07.2012 13:55 16,0 C 79 % 0,0 l/m 2,6 km/h (1 Bft) O-SO 112 12,4 C 16,6 C 0,0 km/h (0 Bft)
13.07.2012 14:00 17,0 C 81 % 0,0 l/m 3,4 km/h (1 Bft) O 90 13,7 C 17,1 C 10,1 km/h (2 Bft)
13.07.2012 14:05 17,3 C 78 % 0,0 l/m 5,1 km/h (1 Bft) S-SO 157 13,4 C 17,6 C 7,4 km/h (2 Bft)
13.07.2012 14:10 17,4 C 77 % 0,0 l/m 5,5 km/h (1 Bft) O-SO 112 13,3 C 18,1 C 5,5 km/h (1 Bft)
13.07.2012 14:15 17,6 C 78 % 0,0 l/m 4,8 km/h (1 Bft) N-NW 337 13,7 C 18,3 C 4,0 km/h (1 Bft)
13.07.2012 14:20 17,9 C 79 % 0,0 l/m 4,2 km/h (1 Bft) SO 135 14,2 C 18,6 C 6,9 km/h (2 Bft)
13.07.2012 14:25 17,7 C 73 % 0,0 l/m 4,3 km/h (1 Bft) O-SO 112 12,8 C 18,8 C 10,9 km/h (2 Bft)
13.07.2012 14:30 17,4 C 67 % 0,0 l/m 5,5 km/h (1 Bft) O-SO 112 11,2 C 18,7 C 7,6 km/h (2 Bft)
13.07.2012 14:35 17,4 C 70 % 0,0 l/m 6,0 km/h (2 Bft) SO 135 11,9 C 18,5 C 3,4 km/h (1 Bft)
13.07.2012 14:40 18,0 C 72 % 0,0 l/m 5,0 km/h (1 Bft) SO 135 12,9 C 18,8 C 5,5 km/h (1 Bft)
13.07.2012 14:45 18,3 C 73 % 0,0 l/m 4,0 km/h (1 Bft) W-SW 247 13,4 C 18,9 C 5,1 km/h (1 Bft)
13.07.2012 14:50 18,7 C 68 % 0,0 l/m 4,7 km/h (1 Bft) SO 135 12,7 C 19,3 C 6,9 km/h (2 Bft)
13.07.2012 14:55 19,5 C 60 % 0,0 l/m 4,5 km/h (1 Bft) S 180 11,5 C 19,8 C 3,4 km/h (1 Bft)
13.07.2012 15:00 19,5 C 63 % 0,0 l/m 3,2 km/h (1 Bft) O-NO 67 12,3 C 21,3 C 3,7 km/h (1 Bft)
13.07.2012 15:05 19,4 C 63 % 0,0 l/m 2,3 km/h (1 Bft) S 180 12,2 C 21,5 C 4,2 km/h (1 Bft)
13.07.2012 15:10 19,8 C 59 % 0,0 l/m 3,2 km/h (1 Bft) S 180 11,6 C 21,3 C 4,7 km/h (1 Bft)
13.07.2012 15:15 19,7 C 58 % 0,0 l/m 3,5 km/h (1 Bft) SO 135 11,2 C 21,2 C 3,7 km/h (1 Bft)
13.07.2012 15:20 19,3 C 57 % 0,0 l/m 2,9 km/h (1 Bft) S 180 10,6 C 21,4 C 0,0 km/h (0 Bft)
13.07.2012 15:25 19,3 C 53 % 0,0 l/m 2,1 km/h (1 Bft) N 360 9,5 C 21,3 C 0,0 km/h (0 Bft)
13.07.2012 15:30 19,8 C 58 % 0,0 l/m 1,0 km/h (0 Bft) W 270 11,3 C 22,1 C 1,8 km/h (1 Bft)
13.07.2012 15:35 19,4 C 56 % 0,0 l/m 1,0 km/h (0 Bft) SW 225 10,4 C 22,1 C 2,1 km/h (1 Bft)
13.07.2012 15:40 19,0 C 57 % 0,0 l/m 1,8 km/h (1 Bft) N-NW 337 10,3 C 21,8 C 0,0 km/h (0 Bft)
13.07.2012 15:45 19,1 C 59 % 0,0 l/m 1,4 km/h (1 Bft) N 360 10,9 C 21,6 C 2,3 km/h (1 Bft)
13.07.2012 15:50 20,8 C 58 % 0,0 l/m 1,3 km/h (1 Bft) NO 45 12,2 C 22,7 C 4,8 km/h (1 Bft)
13.07.2012 15:55 21,0 C 52 % 0,0 l/m 1,8 km/h (1 Bft) O 90 10,8 C 23,2 C 0,0 km/h (0 Bft)
13.07.2012 16:00 20,1 C 55 % 0,0 l/m 3,2 km/h (1 Bft) S-SW 202 10,8 C 23,2 C 4,5 km/h (1 Bft)
13.07.2012 16:05 20,1 C 56 % 0,0 l/m 3,2 km/h (1 Bft) S-SW 202 11,0 C 22,9 C 0,0 km/h (0 Bft)
13.07.2012 16:10 20,2 C 57 % 0,0 l/m 3,1 km/h (1 Bft) W 270 11,4 C 22,7 C 6,6 km/h (2 Bft)
13.07.2012 16:15 20,3 C 55 % 0,0 l/m 2,6 km/h (1 Bft) N-NO 22 11,0 C 22,9 C 2,3 km/h (1 Bft)
13.07.2012 16:20 19,4 C 54 % 0,0 l/m 3,9 km/h (1 Bft) W-NW 292 9,8 C 22,9 C 3,4 km/h (1 Bft)
13.07.2012 16:25 19,5 C 57 % 0,0 l/m 2,6 km/h (1 Bft) W-NW 292 10,8 C 22,3 C 0,0 km/h (0 Bft)
13.07.2012 16:30 19,7 C 59 % 0,0 l/m 1,9 km/h (1 Bft) N-NW 337 11,5 C 21,8 C 2,4 km/h (1 Bft)
13.07.2012 16:35 19,2 C 59 % 0,0 l/m 2,3 km/h (1 Bft) N-NW 337 11,0 C 21,5 C 3,7 km/h (1 Bft)
13.07.2012 16:40 19,2 C 60 % 0,0 l/m 1,9 km/h (1 Bft) SO 135 11,2 C 21,2 C 0,0 km/h (0 Bft)
13.07.2012 16:45 19,0 C 60 % 0,0 l/m 2,4 km/h (1 Bft) W-NW 292 11,1 C 21,1 C 7,2 km/h (2 Bft)
13.07.2012 16:50 19,4 C 60 % 0,0 l/m 2,9 km/h (1 Bft) W-SW 247 11,4 C 20,8 C 2,7 km/h (1 Bft)
13.07.2012 16:55 19,2 C 60 % 0,0 l/m 3,7 km/h (1 Bft) NW 315 11,2 C 20,8 C 3,9 km/h (1 Bft)
13.07.2012 17:00 18,9 C 64 % 0,0 l/m 2,9 km/h (1 Bft) N-NW 337 11,9 C 21,1 C 3,4 km/h (1 Bft)
13.07.2012 17:05 18,7 C 62 % 0,0 l/m 2,9 km/h (1 Bft) W-NW 292 11,3 C 21,0 C 2,9 km/h (1 Bft)
13.07.2012 17:10 18,6 C 62 % 0,0 l/m 3,2 km/h (1 Bft) N 360 11,2 C 20,9 C 1,8 km/h (1 Bft)
13.07.2012 17:15 18,7 C 62 % 0,0 l/m 2,1 km/h (1 Bft) W-SW 247 11,3 C 21,1 C 2,1 km/h (1 Bft)
13.07.2012 17:20 18,5 C 63 % 0,0 l/m 1,0 km/h (0 Bft) NO 45 11,3 C 22,1 C 3,5 km/h (1 Bft)
13.07.2012 17:25 18,4 C 61 % 0,0 l/m 0,8 km/h (0 Bft) N-NO 22 10,7 C 22,3 C 3,1 km/h (1 Bft)
13.07.2012 17:30 18,8 C 61 % 0,0 l/m 1,3 km/h (1 Bft) NW 315 11,1 C 22,5 C 1,8 km/h (1 Bft)
13.07.2012 17:35 18,8 C 60 % 0,0 l/m 1,4 km/h (1 Bft) S 180 10,9 C 22,5 C 0,0 km/h (0 Bft)
13.07.2012 17:40 19,4 C 60 % 0,0 l/m 1,1 km/h (1 Bft) W-SW 247 11,4 C 23,3 C 0,0 km/h (0 Bft)
13.07.2012 17:45 18,9 C 60 % 0,0 l/m 0,6 km/h (0 Bft) N 360 11,0 C 24,0 C 0,0 km/h (0 Bft)
13.07.2012 17:50 18,2 C 61 % 0,0 l/m 1,6 km/h (1 Bft) N 360 10,6 C 22,8 C 0,0 km/h (0 Bft)
13.07.2012 17:55 17,9 C 65 % 0,0 l/m 1,9 km/h (1 Bft) N 360 11,2 C 22,3 C 3,4 km/h (1 Bft)
13.07.2012 18:00 18,0 C 66 % 0,0 l/m 1,4 km/h (1 Bft) NO 45 11,6 C 21,0 C 0,0 km/h (0 Bft)
13.07.2012 18:05 18,2 C 66 % 0,0 l/m 1,1 km/h (1 Bft) N 360 11,7 C 20,7 C 0,0 km/h (0 Bft)
13.07.2012 18:10 18,6 C 65 % 0,0 l/m 0,5 km/h (0 Bft) NO 45 11,9 C 20,7 C 0,0 km/h (0 Bft)
13.07.2012 18:15 18,4 C 66 % 0,0 l/m 0,2 km/h (0 Bft) N-NO 22 11,9 C 20,7 C 0,0 km/h (0 Bft)
13.07.2012 18:20 18,3 C 67 % 0,0 l/m 0,0 km/h (0 Bft) NO 45 12,1 C 20,5 C 0,0 km/h (0 Bft)
13.07.2012 18:25 18,0 C 67 % 0,0 l/m 0,0 km/h (0 Bft) NO 45 11,8 C 20,3 C 0,0 km/h (0 Bft)
13.07.2012 18:30 17,6 C 68 % 0,0 l/m 0,0 km/h (0 Bft) O 90 11,6 C 19,8 C 0,0 km/h (0 Bft)
13.07.2012 18:35 17,3 C 69 % 0,0 l/m 0,0 km/h (0 Bft) N-NW 337 11,6 C 19,5 C 0,0 km/h (0 Bft)
13.07.2012 18:40 17,1 C 70 % 0,0 l/m 0,2 km/h (0 Bft) N-NW 337 11,6 C 18,9 C 1,9 km/h (1 Bft)
13.07.2012 18:45 17,1 C 70 % 0,0 l/m 0,2 km/h (0 Bft) NO 45 11,6 C 18,7 C 0,0 km/h (0 Bft)
13.07.2012 18:50 17,2 C 72 % 0,0 l/m 0,6 km/h (0 Bft) N-NO 22 12,1 C 18,4 C 2,1 km/h (1 Bft)
13.07.2012 18:55 17,6 C 71 % 0,0 l/m 0,5 km/h (0 Bft) N 360 12,3 C 18,4 C 0,0 km/h (0 Bft)
13.07.2012 19:00 17,7 C 71 % 0,0 l/m 0,3 km/h (0 Bft) NO 45 12,4 C 18,6 C 0,0 km/h (0 Bft)
13.07.2012 19:05 17,6 C 71 % 0,0 l/m 0,3 km/h (0 Bft) N 360 12,3 C 18,6 C 1,9 km/h (1 Bft)
13.07.2012 19:10 17,4 C 72 % 0,0 l/m 0,6 km/h (0 Bft) N 360 12,3 C 18,5 C 0,0 km/h (0 Bft)
13.07.2012 19:15 17,2 C 73 % 0,0 l/m 0,5 km/h (0 Bft) O 90 12,3 C 18,3 C 0,0 km/h (0 Bft)
13.07.2012 19:20 17,1 C 74 % 0,0 l/m 0,0 km/h (0 Bft) N-NO 22 12,4 C 18,3 C 0,0 km/h (0 Bft)
13.07.2012 19:25 17,1 C 75 % 0,0 l/m 0,2 km/h (0 Bft) N-NW 337 12,6 C 18,3 C 1,8 km/h (1 Bft)
13.07.2012 19:30 16,9 C 76 % 0,0 l/m 0,2 km/h (0 Bft) W-NW 292 12,6 C 18,1 C 0,0 km/h (0 Bft)
13.07.2012 19:35 16,8 C 76 % 0,0 l/m 0,2 km/h (0 Bft) N-NO 22 12,5 C 17,9 C 0,0 km/h (0 Bft)
13.07.2012 19:40 16,5 C 77 % 0,0 l/m 0,2 km/h (0 Bft) N 360 12,5 C 17,5 C 1,6 km/h (1 Bft)
13.07.2012 19:45 16,4 C 77 % 0,0 l/m 0,3 km/h (0 Bft) W-NW 292 12,4 C 17,2 C 0,0 km/h (0 Bft)
13.07.2012 19:50 16,2 C 77 % 0,0 l/m 0,2 km/h (0 Bft) NO 45 12,2 C 16,9 C 0,0 km/h (0 Bft)
13.07.2012 19:55 16,1 C 77 % 0,0 l/m 0,2 km/h (0 Bft) NO 45 12,1 C 16,7 C 0,0 km/h (0 Bft)
13.07.2012 20:00 15,9 C 78 % 0,0 l/m 0,5 km/h (0 Bft) N-NO 22 12,1 C 16,4 C 0,0 km/h (0 Bft)
13.07.2012 20:05 15,7 C 79 % 0,0 l/m 0,6 km/h (0 Bft) N-NO 22 12,1 C 16,2 C 0,0 km/h (0 Bft)
13.07.2012 20:10 15,4 C 80 % 0,0 l/m 0,2 km/h (0 Bft) N-NO 22 12,0 C 15,6 C 0,0 km/h (0 Bft)
13.07.2012 20:15 15,2 C 82 % 0,0 l/m 0,2 km/h (0 Bft) N 360 12,1 C 15,3 C 1,8 km/h (1 Bft)
13.07.2012 20:20 14,9 C 83 % 0,0 l/m 0,3 km/h (0 Bft) NO 45 12,0 C 15,0 C 0,0 km/h (0 Bft)
13.07.2012 20:25 15,0 C 82 % 0,0 l/m 0,2 km/h (0 Bft) O-NO 67 12,0 C 14,9 C 0,0 km/h (0 Bft)
13.07.2012 20:30 15,0 C 82 % 0,0 l/m 0,0 km/h (0 Bft) NO 45 12,0 C 14,8 C 0,0 km/h (0 Bft)
13.07.2012 20:35 14,9 C 83 % 0,0 l/m 0,0 km/h (0 Bft) O-NO 67 12,0 C 14,7 C 0,0 km/h (0 Bft)
13.07.2012 20:40 14,8 C 83 % 0,0 l/m 0,0 km/h (0 Bft) O 90 11,9 C 14,7 C 0,0 km/h (0 Bft)
13.07.2012 20:45 14,8 C 83 % 0,0 l/m 0,0 km/h (0 Bft) O-NO 67 11,9 C 14,6 C 0,0 km/h (0 Bft)
13.07.2012 20:50 14,7 C 84 % 0,0 l/m 0,0 km/h (0 Bft) NO 45 12,0 C 14,5 C 0,0 km/h (0 Bft)
13.07.2012 20:55 14,5 C 84 % 0,0 l/m 0,0 km/h (0 Bft) N-NO 22 11,8 C 14,4 C 0,0 km/h (0 Bft)
13.07.2012 21:00 14,3 C 86 % 0,0 l/m 0,0 km/h (0 Bft) N-NO 22 12,0 C 14,1 C 0,0 km/h (0 Bft)
13.07.2012 21:05 14,2 C 87 % 0,0 l/m 0,0 km/h (0 Bft) N-NO 22 12,1 C 14,0 C 0,0 km/h (0 Bft)
13.07.2012 21:10 14,0 C 89 % 0,0 l/m 0,8 km/h (0 Bft) N 360 12,2 C 13,8 C 3,1 km/h (1 Bft)
13.07.2012 21:15 13,9 C 90 % 0,0 l/m 1,3 km/h (1 Bft) N 360 12,3 C 13,7 C 0,0 km/h (0 Bft)
13.07.2012 21:20 13,8 C 91 % 0,7 l/m 1,0 km/h (0 Bft) NO 45 12,4 C 13,7 C 0,0 km/h (0 Bft)
13.07.2012 21:25 13,8 C 91 % 0,0 l/m 0,3 km/h (0 Bft) N-NW 337 12,4 C 13,7 C 0,0 km/h (0 Bft)
13.07.2012 21:30 13,8 C 91 % 0,0 l/m 0,2 km/h (0 Bft) N 360 12,4 C 13,7 C 0,0 km/h (0 Bft)
13.07.2012 21:35 13,6 C 92 % 0,0 l/m 0,0 km/h (0 Bft) W-NW 292 12,3 C 13,6 C 0,0 km/h (0 Bft)
13.07.2012 21:40 13,5 C 92 % 0,7 l/m 0,2 km/h (0 Bft) W-NW 292 12,2 C 13,5 C 0,0 km/h (0 Bft)
13.07.2012 21:45 13,5 C 92 % 0,0 l/m 0,2 km/h (0 Bft) S-SO 157 12,2 C 13,5 C 0,0 km/h (0 Bft)
13.07.2012 21:50 13,5 C 92 % 0,0 l/m 0,3 km/h (0 Bft) N-NW 337 12,2 C 13,4 C 0,0 km/h (0 Bft)
13.07.2012 21:55 13,5 C 92 % 0,0 l/m 0,3 km/h (0 Bft) W-SW 247 12,2 C 13,4 C 0,0 km/h (0 Bft)
13.07.2012 22:00 13,4 C 93 % 0,0 l/m 0,0 km/h (0 Bft) O-SO 112 12,3 C 13,3 C 0,0 km/h (0 Bft)
13.07.2012 22:05 13,4 C 93 % 0,0 l/m 0,3 km/h (0 Bft) W-SW 247 12,3 C 13,3 C 0,0 km/h (0 Bft)
13.07.2012 22:10 13,4 C 93 % 0,0 l/m 0,5 km/h (0 Bft) NW 315 12,3 C 13,3 C 0,0 km/h (0 Bft)
13.07.2012 22:15 13,4 C 93 % 0,0 l/m 0,3 km/h (0 Bft) N-NO 22 12,3 C 13,3 C 0,0 km/h (0 Bft)
13.07.2012 22:20 13,4 C 93 % 0,0 l/m 0,0 km/h (0 Bft) N-NO 22 12,3 C 13,3 C 0,0 km/h (0 Bft)
13.07.2012 22:25 13,4 C 93 % 0,0 l/m 0,0 km/h (0 Bft) W-NW 292 12,3 C 13,3 C 0,0 km/h (0 Bft)
13.07.2012 22:30 13,4 C 93 % 0,0 l/m 0,0 km/h (0 Bft) N-NW 337 12,3 C 13,3 C 0,0 km/h (0 Bft)
13.07.2012 22:35 13,4 C 93 % 0,0 l/m 0,0 km/h (0 Bft) N 360 12,3 C 13,3 C 0,0 km/h (0 Bft)
13.07.2012 22:40 13,4 C 93 % 0,7 l/m 0,5 km/h (0 Bft) S 180 12,3 C 13,3 C 1,8 km/h (1 Bft)
13.07.2012 22:45 13,4 C 93 % 0,0 l/m 0,5 km/h (0 Bft) W-NW 292 12,3 C 13,3 C 0,0 km/h (0 Bft)
13.07.2012 22:50 13,3 C 93 % 0,0 l/m 0,2 km/h (0 Bft) N 360 12,2 C 13,2 C 0,0 km/h (0 Bft)
13.07.2012 22:55 13,3 C 93 % 0,0 l/m 0,2 km/h (0 Bft) NO 45 12,2 C 13,2 C 0,0 km/h (0 Bft)
13.07.2012 23:00 13,2 C 93 % 0,0 l/m 0,2 km/h (0 Bft) N 360 12,1 C 13,2 C 0,0 km/h (0 Bft)
13.07.2012 23:05 13,2 C 94 % 0,0 l/m 0,0 km/h (0 Bft) W-NW 292 12,3 C 13,2 C 0,0 km/h (0 Bft)
13.07.2012 23:10 13,2 C 94 % 0,0 l/m 0,0 km/h (0 Bft) O-SO 112 12,3 C 13,1 C 2,1 km/h (1 Bft)
13.07.2012 23:15 13,2 C 94 % 0,0 l/m 0,0 km/h (0 Bft) NO 45 12,3 C 13,1 C 0,0 km/h (0 Bft)
13.07.2012 23:20 13,1 C 94 % 0,0 l/m 0,0 km/h (0 Bft) S 180 12,2 C 13,0 C 0,0 km/h (0 Bft)
13.07.2012 23:25 13,1 C 94 % 0,0 l/m 0,0 km/h (0 Bft) N 360 12,2 C 13,0 C 0,0 km/h (0 Bft)
13.07.2012 23:30 13,1 C 94 % 0,0 l/m 0,0 km/h (0 Bft) N 360 12,2 C 13,0 C 0,0 km/h (0 Bft)
13.07.2012 23:35 13,0 C 94 % 0,0 l/m 0,0 km/h (0 Bft) W-NW 292 12,1 C 13,0 C 0,0 km/h (0 Bft)
13.07.2012 23:40 13,0 C 94 % 0,0 l/m 0,0 km/h (0 Bft) N 360 12,1 C 13,0 C 0,0 km/h (0 Bft)
13.07.2012 23:45 13,0 C 94 % 0,0 l/m 0,0 km/h (0 Bft) N-NW 337 12,1 C 12,9 C 0,0 km/h (0 Bft)
13.07.2012 23:50 13,0 C 94 % 0,0 l/m 0,2 km/h (0 Bft) N 360 12,1 C 12,9 C 0,0 km/h (0 Bft)
13.07.2012 23:55 13,0 C 94 % 0,0 l/m 0,2 km/h (0 Bft) O-SO 112 12,1 C 12,9 C 0,0 km/h (0 Bft)
_ Min-Zeit 05:45 15:55 - 23:45 - - 00:15 05:20 23:55
Minimum _ 10,6 C 52 % - 0,0 km/h (0 Bft) - - 8,3 C 10,3 C 0,0 km/h (0 Bft)
_ Max-Zeit 15:55 09:40 22:40 13:05 - - 14:20 17:45 13:00
Maximum _ 21,0 C 95 % 0,7 l/m 6,4 km/h
N-NO (2 Bft)
- - 14,2 C 24,0 C 19,8 km/h
N (3 Bft)
Durchschnitt _ 14,2 C 82 % #4,8 l/m 1,0 km/h (0 Bft) O-SO - 11,0 C 14,8 C 1,3 km/h (1 Bft)